Time;durP1;ratioP1;P1;durP2;ratioP2;P2;SDS_P1;SDS_P2;PMS_P1;PMS_P2;Temp;Humidity;BMP_temperature;BMP_pressure;BME280_temperature;BME280_humidity;BME280_pressure;Samples;Min_cycle;Max_cycle;Signal;HPM_P1;HPM_P2
2022/12/06 00:02:08;;;;;;;16.52;7.85;;;;;;;1.71;100.00;96452.03;5002436;28;20125;-79
2022/12/06 00:04:34;;;;;;;16.55;8.35;;;;;;;1.55;100.00;96442.28;4994946;28;20678;-80
2022/12/06 00:07:01;;;;;;;12.45;7.13;;;;;;;1.73;100.00;96441.06;5017064;28;20074;-79
2022/12/06 00:09:31;;;;;;;13.57;7.20;;;;;;;1.61;100.00;96435.06;5025469;28;20033;-78
2022/12/06 00:11:59;;;;;;;13.23;7.57;;;;;;;1.53;100.00;96442.53;5024453;28;20073;-78
2022/12/06 00:14:26;;;;;;;14.70;8.23;;;;;;;1.47;100.00;96440.91;5009461;28;20050;-78
2022/12/06 00:16:53;;;;;;;12.25;7.13;;;;;;;1.59;100.00;96443.38;5016508;28;20072;-79
2022/12/06 00:19:23;;;;;;;12.18;7.18;;;;;;;1.65;100.00;96446.91;5018052;28;20703;-78
2022/12/06 00:21:50;;;;;;;12.95;7.43;;;;;;;1.60;100.00;96441.50;5006092;28;20069;-79
2022/12/06 00:24:18;;;;;;;15.50;8.25;;;;;;;1.54;100.00;96437.97;5008876;28;20532;-79
2022/12/06 00:26:48;;;;;;;13.45;7.80;;;;;;;1.69;100.00;96435.41;5003302;28;20090;-79
2022/12/06 00:29:16;;;;;;;15.30;8.30;;;;;;;1.50;100.00;96435.00;5004249;28;20133;-78
2022/12/06 00:31:43;;;;;;;18.77;9.45;;;;;;;1.48;100.00;96430.97;5013704;28;20096;-79
2022/12/06 00:34:10;;;;;;;15.88;8.73;;;;;;;1.46;100.00;96430.41;5006806;28;20038;-79
2022/12/06 00:36:38;;;;;;;18.05;9.18;;;;;;;1.47;100.00;96434.72;5016748;28;21931;-79
2022/12/06 00:39:07;;;;;;;18.00;9.82;;;;;;;1.55;100.00;96431.53;5013780;28;20073;-79
2022/12/06 00:41:34;;;;;;;24.08;10.85;;;;;;;1.65;100.00;96436.97;5015935;28;20076;-79
2022/12/06 00:44:02;;;;;;;17.80;9.45;;;;;;;1.66;100.00;96427.03;5010385;28;20069;-78
2022/12/06 00:46:31;;;;;;;19.92;10.48;;;;;;;1.64;100.00;96424.63;5007417;28;20126;-78
2022/12/06 00:48:59;;;;;;;18.92;10.52;;;;;;;1.70;100.00;96423.59;5010156;28;20150;-78
2022/12/06 00:51:29;;;;;;;19.88;11.40;;;;;;;1.73;100.00;96422.28;5014757;28;20045;-79
2022/12/06 00:53:55;;;;;;;20.88;10.23;;;;;;;1.80;100.00;96418.28;4999963;28;20500;-77
2022/12/06 00:56:23;;;;;;;19.45;10.40;;;;;;;1.91;100.00;96423.69;4995038;28;20042;-80
2022/12/06 00:58:50;;;;;;;20.30;11.05;;;;;;;1.93;100.00;96416.19;5013655;28;20587;-79
2022/12/06 01:01:20;;;;;;;88.78;39.15;;;;;;;1.70;100.00;96417.41;5005704;28;20057;-78
2022/12/06 01:03:50;;;;;;;25.30;13.35;;;;;;;1.71;100.00;96410.97;5013161;28;20085;-79
2022/12/06 01:06:17;;;;;;;20.40;11.05;;;;;;;1.81;100.00;96413.72;5013949;28;20057;-78
2022/12/06 01:08:44;;;;;;;23.80;11.63;;;;;;;1.79;100.00;96411.28;4997849;28;20046;-77
2022/12/06 01:11:14;;;;;;;24.83;11.93;;;;;;;1.69;100.00;96415.78;5008786;28;20042;-79
2022/12/06 01:13:40;;;;;;;22.60;11.13;;;;;;;1.69;100.00;96400.50;5004297;28;20054;-80
2022/12/06 01:16:11;;;;;;;19.63;11.20;;;;;;;1.72;100.00;96416.09;5002388;28;20725;-79
2022/12/06 01:18:39;;;;;;;24.23;11.90;;;;;;;1.64;100.00;96413.88;5009881;28;20064;-79
2022/12/06 01:21:07;;;;;;;26.40;12.55;;;;;;;1.52;100.00;96405.25;5003183;28;20046;-79
2022/12/06 01:23:34;;;;;;;20.77;11.20;;;;;;;1.69;100.00;96400.50;5011648;28;20050;-79
2022/12/06 01:26:01;;;;;;;22.63;12.07;;;;;;;1.68;100.00;96398.88;5005558;28;20048;-79
2022/12/06 01:28:27;;;;;;;23.05;12.50;;;;;;;1.59;100.00;96400.44;5005651;28;20054;-79
2022/12/06 01:30:54;;;;;;;21.88;12.55;;;;;;;1.49;100.00;96400.38;5001254;28;20042;-80
2022/12/06 01:33:21;;;;;;;24.67;13.45;;;;;;;1.50;100.00;96391.25;5011450;28;20049;-77
2022/12/06 01:35:49;;;;;;;25.27;13.10;;;;;;;1.52;100.00;96394.50;5004094;28;20056;-79
2022/12/06 01:38:16;;;;;;;25.95;13.43;;;;;;;1.35;100.00;96399.19;5004585;28;20052;-79
2022/12/06 01:40:44;;;;;;;24.95;13.18;;;;;;;1.45;100.00;96388.53;5001908;28;20050;-79
2022/12/06 01:43:31;;;;;;;27.70;13.65;;;;;;;1.43;100.00;96390.69;4995016;28;20049;-80
2022/12/06 01:46:01;;;;;;;22.80;12.48;;;;;;;1.46;100.00;96390.16;5001867;28;20050;-78
2022/12/06 01:48:28;;;;;;;25.20;12.85;;;;;;;1.34;100.00;96392.22;5000853;28;20049;-79
2022/12/06 01:50:57;;;;;;;25.38;12.80;;;;;;;1.30;100.00;96387.38;5012782;28;20050;-79
2022/12/06 01:53:24;;;;;;;29.23;14.52;;;;;;;1.25;100.00;96382.00;5005151;28;20046;-78
2022/12/06 01:55:52;;;;;;;30.73;14.88;;;;;;;1.25;100.00;96373.94;5000874;28;20498;-79
2022/12/06 01:58:22;;;;;;;27.45;14.63;;;;;;;1.30;100.00;96376.66;5002387;28;20049;-79
2022/12/06 02:00:49;;;;;;;30.58;14.50;;;;;;;1.15;100.00;96389.97;4993937;28;20478;-79
2022/12/06 02:03:20;;;;;;;30.20;15.05;;;;;;;1.14;100.00;96377.59;5001952;28;20046;-79
2022/12/06 02:05:46;;;;;;;30.58;14.95;;;;;;;1.17;100.00;96382.47;5004307;28;20137;-79
2022/12/06 02:08:16;;;;;;;33.08;14.55;;;;;;;1.21;100.00;96377.41;5012572;28;20042;-80
2022/12/06 02:10:42;;;;;;;30.10;14.68;;;;;;;1.10;100.00;96381.88;5011724;28;20053;-79
2022/12/06 02:13:09;;;;;;;29.90;14.73;;;;;;;1.08;100.00;96378.63;5006945;28;20041;-79
2022/12/06 02:15:46;;;;;;;32.13;14.95;;;;;;;1.08;100.00;96380.50;5007848;28;20054;-79
2022/12/06 02:18:21;;;;;;;31.17;14.55;;;;;;;0.96;100.00;96384.16;5002512;28;20049;-79
2022/12/06 02:20:53;;;;;;;30.33;15.45;;;;;;;0.98;100.00;96381.22;5012138;28;20509;-80
2022/12/06 02:23:43;;;;;;;33.72;16.17;;;;;;;0.94;100.00;96378.28;5005823;28;20064;-80
2022/12/06 02:26:20;;;;;;;32.17;14.38;;;;;;;0.90;100.00;96374.47;4996371;28;20046;-77
2022/12/06 02:29:34;;;;;;;32.85;15.85;;;;;;;0.82;100.00;96374.13;5004789;28;20050;-78
2022/12/06 02:32:08;;;;;;;34.10;16.20;;;;;;;0.83;100.00;96375.75;4923074;29;20051;-80
2022/12/06 02:34:44;;;;;;;37.35;16.08;;;;;;;0.85;100.00;96376.31;4936081;29;20798;-78
2022/12/06 02:37:14;;;;;;;30.40;14.85;;;;;;;0.77;100.00;96373.00;4974690;28;20050;-79
2022/12/06 02:39:48;;;;;;;34.60;16.60;;;;;;;0.80;100.00;96370.91;5007577;28;20050;-78
2022/12/06 02:42:18;;;;;;;36.67;17.38;;;;;;;0.74;100.00;96368.19;5009327;28;20081;-79
2022/12/06 02:44:48;;;;;;;37.08;17.25;;;;;;;0.75;100.00;96372.47;5006651;28;20080;-79
2022/12/06 02:47:20;;;;;;;34.03;16.50;;;;;;;0.68;100.00;96361.16;5007560;28;20046;-79
2022/12/06 02:49:53;;;;;;;34.83;15.77;;;;;;;0.70;100.00;96367.06;5015286;28;20096;-78
2022/12/06 02:52:23;;;;;;;;;;;;;;;0.71;100.00;96363.31;5014758;28;20049;-79
2022/12/06 02:54:52;;;;;;;37.40;16.00;;;;;;;0.78;100.00;96363.09;5005477;28;19921;-78
2022/12/06 02:57:21;;;;;;;30.25;14.60;;;;;;;0.86;100.00;96359.16;5002785;28;20088;-78
2022/12/06 02:59:52;;;;;;;24.45;13.25;;;;;;;0.91;100.00;96356.50;5014316;28;20050;-79
2022/12/06 03:02:22;;;;;;;27.00;13.35;;;;;;;0.99;100.00;96359.53;5001009;28;20050;-80
2022/12/06 03:05:11;;;;;;;37.08;15.75;;;;;;;1.06;100.00;96358.50;4997803;28;20156;-79
2022/12/06 03:07:42;;;;;;;25.60;12.68;;;;;;;1.16;100.00;96350.53;4996745;28;20061;-79
2022/12/06 03:10:25;;;;;;;27.50;13.43;;;;;;;1.28;100.00;96351.13;5008939;28;20485;-78
2022/12/06 03:13:01;;;;;;;24.13;12.95;;;;;;;1.37;100.00;96354.16;5007011;28;20050;-79
2022/12/06 03:15:37;;;;;;;28.92;14.20;;;;;;;1.27;100.00;96355.69;4996950;28;20061;-78
2022/12/06 03:18:11;;;;;;;30.20;14.05;;;;;;;1.32;100.00;96351.44;5015580;28;20076;-79
2022/12/06 03:20:44;;;;;;;27.88;14.27;;;;;;;1.49;100.00;96352.06;5007597;28;20053;-78
2022/12/06 03:23:15;;;;;;;32.10;14.25;;;;;;;1.56;100.00;96342.69;5008640;28;20126;-79
2022/12/06 03:25:44;;;;;;;29.50;13.30;;;;;;;1.64;100.00;96352.16;5005800;28;20097;-79
2022/12/06 03:28:13;;;;;;;28.15;14.30;;;;;;;1.57;100.00;96351.59;5016274;28;20109;-77
2022/12/06 03:30:42;;;;;;;30.77;14.23;;;;;;;1.34;100.00;96357.34;5009985;28;20062;-78
2022/12/06 03:33:15;;;;;;;29.80;14.48;;;;;;;1.25;100.00;96348.97;5011244;28;20046;-78
2022/12/06 03:35:45;;;;;;;26.55;12.88;;;;;;;1.15;100.00;96352.41;5011212;28;20049;-78
2022/12/06 03:38:15;;;;;;;28.15;13.75;;;;;;;1.14;100.00;96339.25;5011583;28;20042;-79
2022/12/06 03:40:47;;;;;;;30.08;12.85;;;;;;;1.17;100.00;96339.53;5011724;28;20049;-80
2022/12/06 03:43:14;;;;;;;25.35;12.35;;;;;;;1.29;100.00;96342.81;5003486;28;20048;-79
2022/12/06 03:45:46;;;;;;;29.27;12.63;;;;;;;1.14;100.00;96341.91;5013451;28;20050;-78
2022/12/06 03:48:17;;;;;;;30.20;12.27;;;;;;;1.16;100.00;96337.13;4995781;28;20064;-78
2022/12/06 03:50:47;;;;;;;25.13;11.55;;;;;;;1.21;100.00;96335.28;5003856;28;20042;-81
2022/12/06 03:53:16;;;;;;;24.70;11.55;;;;;;;1.19;100.00;96336.59;5010383;28;20048;-80
2022/12/06 03:55:43;;;;;;;26.35;12.48;;;;;;;1.23;100.00;96341.19;4993769;28;20078;-79
2022/12/06 03:58:10;;;;;;;26.65;11.30;;;;;;;1.33;100.00;96343.13;5001538;28;20406;-78
2022/12/06 04:00:37;;;;;;;23.88;11.15;;;;;;;1.34;100.00;96333.19;5009324;28;20549;-80
2022/12/06 04:03:03;;;;;;;28.63;13.07;;;;;;;1.29;100.00;96332.09;5002683;28;20045;-79
2022/12/06 04:05:31;;;;;;;22.08;10.07;;;;;;;1.35;100.00;96334.81;5001466;28;20130;-79
2022/12/06 04:07:58;;;;;;;23.38;11.63;;;;;;;1.22;100.00;96334.22;5000870;28;20145;-80
2022/12/06 04:10:24;;;;;;;25.25;11.18;;;;;;;1.30;100.00;96333.75;5008131;28;20046;-78
2022/12/06 04:12:59;;;;;;;25.02;11.20;;;;;;;1.35;100.00;96340.19;4993978;28;20046;-78
2022/12/06 04:15:26;;;;;;;25.98;11.73;;;;;;;1.41;100.00;96341.81;4993342;28;20136;-80
2022/12/06 04:18:10;;;;;;;24.20;11.10;;;;;;;1.22;100.00;96342.25;5001307;28;20053;-79
2022/12/06 04:23:27;;;;;;;27.13;12.10;;;;;;;1.14;100.00;96340.03;5003739;28;20165;-78
2022/12/06 04:25:54;;;;;;;25.52;12.18;;;;;;;1.05;100.00;96352.34;4996534;28;20496;-79
2022/12/06 04:39:20;;;;;;;28.13;12.48;;;;;;;0.74;100.00;96336.03;5001588;28;20061;-77
2022/12/06 04:44:30;;;;;;;24.05;11.40;;;;;;;0.61;100.00;96336.44;5004965;28;20296;-79
2022/12/06 04:46:59;;;;;;;23.33;11.23;;;;;;;0.60;100.00;96329.47;5002252;28;20053;-78
2022/12/06 04:49:26;;;;;;;27.05;12.13;;;;;;;0.66;100.00;96333.78;5013133;28;20710;-79
2022/12/06 04:51:54;;;;;;;23.45;11.57;;;;;;;0.88;100.00;96331.00;5004031;28;20493;-79
2022/12/06 04:54:21;;;;;;;24.30;11.65;;;;;;;0.99;100.00;96326.53;5005243;28;20053;-78
2022/12/06 04:56:47;;;;;;;22.23;11.27;;;;;;;1.05;100.00;96325.53;5001393;28;20077;-79
2022/12/06 04:59:14;;;;;;;24.52;11.55;;;;;;;1.14;100.00;96323.94;5001614;28;20046;-78
2022/12/06 05:01:41;;;;;;;28.48;12.38;;;;;;;1.03;100.00;96333.00;4997944;28;20049;-79
2022/12/06 05:04:07;;;;;;;27.63;12.52;;;;;;;0.97;100.00;96331.34;4999410;28;20051;-80
2022/12/06 05:06:34;;;;;;;22.02;11.43;;;;;;;0.95;100.00;96333.50;4994817;28;20046;-79
2022/12/06 05:09:02;;;;;;;22.50;12.18;;;;;;;0.97;100.00;96331.34;5014154;28;20046;-79
2022/12/06 05:11:29;;;;;;;22.08;11.05;;;;;;;1.17;100.00;96328.81;5008762;28;20056;-78
2022/12/06 05:13:57;;;;;;;23.45;11.68;;;;;;;1.14;100.00;96332.00;4995089;28;20061;-79
2022/12/06 05:16:23;;;;;;;23.48;11.55;;;;;;;1.12;100.00;96331.47;5003308;28;20054;-79
2022/12/06 05:18:50;;;;;;;19.08;9.90;;;;;;;1.25;100.00;96328.34;4995370;28;20057;-80
2022/12/06 05:21:20;;;;;;;22.95;11.30;;;;;;;1.12;100.00;96319.94;5010241;28;20042;-79
2022/12/06 05:23:47;;;;;;;23.20;10.60;;;;;;;1.14;100.00;96318.59;5005734;28;20050;-79
2022/12/06 05:26:17;;;;;;;19.55;9.68;;;;;;;1.13;100.00;96327.72;4997506;28;20038;-78
2022/12/06 05:28:45;;;;;;;20.13;10.27;;;;;;;1.06;100.00;96323.66;5011392;28;20050;-79
2022/12/06 05:31:12;;;;;;;20.80;10.55;;;;;;;0.99;100.00;96321.16;4999978;28;20046;-78
2022/12/06 05:33:39;;;;;;;19.75;10.05;;;;;;;0.94;100.00;96323.81;5010372;28;20077;-79
2022/12/06 05:36:07;;;;;;;18.35;8.85;;;;;;;0.88;100.00;96327.53;5013306;28;20042;-79
2022/12/06 05:38:34;;;;;;;19.35;9.70;;;;;;;0.85;100.00;96333.41;4998416;28;20140;-79
2022/12/06 05:41:02;;;;;;;18.92;9.25;;;;;;;0.83;100.00;96332.84;5005731;28;20046;-79
2022/12/06 05:43:30;;;;;;;18.42;9.48;;;;;;;0.79;100.00;96335.25;5008552;28;20054;-79
2022/12/06 05:45:57;;;;;;;21.63;10.75;;;;;;;0.81;100.00;96332.31;5015915;28;20629;-79
2022/12/06 05:48:24;;;;;;;22.52;10.48;;;;;;;0.81;100.00;96327.75;5005255;28;20051;-80
2022/12/06 05:50:52;;;;;;;20.65;10.80;;;;;;;0.77;100.00;96330.13;5018787;28;20225;-79
2022/12/06 05:53:20;;;;;;;21.55;10.55;;;;;;;0.74;100.00;96330.66;5003434;28;20050;-79
2022/12/06 05:55:47;;;;;;;19.60;9.63;;;;;;;0.73;100.00;96326.38;5001784;28;20129;-79
2022/12/06 05:58:14;;;;;;;22.75;11.43;;;;;;;0.73;100.00;96323.69;5008873;28;20050;-78
2022/12/06 06:00:42;;;;;;;20.60;10.32;;;;;;;0.79;100.00;96329.91;5001092;28;20113;-78
2022/12/06 06:03:08;;;;;;;20.77;10.63;;;;;;;0.84;100.00;96324.56;5007329;28;20132;-80
2022/12/06 06:05:35;;;;;;;22.92;11.68;;;;;;;0.87;100.00;96326.72;5012176;28;20137;-78
2022/12/06 06:08:01;;;;;;;21.35;10.77;;;;;;;0.94;100.00;96324.66;5009964;28;20046;-79
2022/12/06 06:10:28;;;;;;;22.00;10.52;;;;;;;0.99;100.00;96322.00;5010549;28;20048;-79
2022/12/06 06:12:56;;;;;;;27.10;12.50;;;;;;;0.86;100.00;96327.00;5012955;28;20133;-79
2022/12/06 06:15:23;;;;;;;25.30;11.75;;;;;;;0.69;100.00;96327.94;5004148;28;20137;-79
2022/12/06 06:17:50;;;;;;;21.58;11.23;;;;;;;0.66;100.00;96328.44;5012201;28;20137;-79
2022/12/06 06:20:17;;;;;;;22.25;11.95;;;;;;;0.64;100.00;96325.22;5008455;28;20046;-80
2022/12/06 06:22:44;;;;;;;24.40;12.10;;;;;;;0.60;100.00;96334.81;5020539;28;20050;-79
2022/12/06 06:25:10;;;;;;;30.83;14.20;;;;;;;0.51;100.00;96339.03;5026075;28;20065;-80
2022/12/06 06:27:38;;;;;;;27.67;13.32;;;;;;;0.68;100.00;96330.84;5029429;28;20053;-78
2022/12/06 06:30:07;;;;;;;23.85;12.10;;;;;;;0.85;100.00;96336.09;5014422;28;20042;-78
2022/12/06 06:32:34;;;;;;;26.92;13.60;;;;;;;0.60;100.00;96339.38;5026395;28;20062;-79
2022/12/06 06:35:01;;;;;;;30.98;14.93;;;;;;;0.52;100.00;96335.28;5024401;28;20054;-79
2022/12/06 06:37:28;;;;;;;29.20;13.95;;;;;;;0.44;100.00;96331.19;5015875;28;20050;-80
2022/12/06 06:39:55;;;;;;;30.23;14.07;;;;;;;0.44;100.00;96327.72;5011689;28;20053;-79
2022/12/06 06:42:21;;;;;;;31.38;14.30;;;;;;;0.42;100.00;96337.88;5009085;28;20046;-81
2022/12/06 06:44:48;;;;;;;36.97;16.65;;;;;;;0.49;100.00;96333.13;5014039;28;20054;-78
2022/12/06 06:47:15;;;;;;;36.22;15.98;;;;;;;0.48;100.00;96336.88;5007817;28;20057;-79
2022/12/06 06:49:41;;;;;;;32.78;14.60;;;;;;;0.55;100.00;96342.00;5014986;28;20064;-79
2022/12/06 06:52:09;;;;;;;33.58;14.27;;;;;;;0.57;100.00;96340.69;5007146;28;20034;-79
2022/12/06 06:54:36;;;;;;;35.60;14.85;;;;;;;0.45;100.00;96340.03;5015980;28;20042;-80
2022/12/06 06:57:03;;;;;;;35.00;14.68;;;;;;;0.42;100.00;96337.88;5000022;28;20099;-81
2022/12/06 06:59:29;;;;;;;31.17;14.80;;;;;;;0.43;100.00;96340.31;5007430;28;20046;-79
2022/12/06 07:01:56;;;;;;;28.42;13.68;;;;;;;0.51;100.00;96341.69;5011295;28;20046;-81
2022/12/06 07:04:23;;;;;;;35.20;14.93;;;;;;;0.44;100.00;96335.75;5010951;28;20052;-80
2022/12/06 07:06:49;;;;;;;34.85;14.90;;;;;;;0.41;100.00;96330.88;5002816;28;20054;-80
2022/12/06 07:09:17;;;;;;;32.60;15.77;;;;;;;0.41;100.00;96341.59;5011825;28;20130;-80
2022/12/06 07:11:44;;;;;;;37.50;15.90;;;;;;;0.45;100.00;96332.81;5020857;28;20070;-79
2022/12/06 07:14:10;;;;;;;31.42;15.32;;;;;;;0.45;100.00;96342.72;5017926;28;20050;-79
2022/12/06 07:16:37;;;;;;;34.83;15.45;;;;;;;0.43;100.00;96345.66;5011735;28;20129;-78
2022/12/06 07:19:04;;;;;;;34.60;15.23;;;;;;;0.47;100.00;96340.59;5012324;28;20050;-78
2022/12/06 07:21:30;;;;;;;29.25;14.48;;;;;;;0.55;100.00;96345.50;5012502;28;20043;-79
2022/12/06 07:23:59;;;;;;;35.17;15.35;;;;;;;0.56;100.00;96338.25;5010340;28;20046;-79
2022/12/06 07:26:28;;;;;;;31.98;15.27;;;;;;;0.60;100.00;96345.53;5015544;28;20143;-79
2022/12/06 07:28:56;;;;;;;34.05;15.38;;;;;;;0.61;100.00;96344.47;5067649;22;20046;-80
2022/12/06 07:31:25;;;;;;;32.72;14.73;;;;;;;0.54;100.00;96340.41;5009369;28;20137;-79
2022/12/06 07:33:52;;;;;;;31.42;13.95;;;;;;;0.56;100.00;96344.41;5013001;28;20117;-78
2022/12/06 07:36:21;;;;;;;30.98;14.73;;;;;;;0.62;100.00;96348.75;5005663;28;20042;-79
2022/12/06 07:38:49;;;;;;;30.15;14.60;;;;;;;0.63;100.00;96344.22;5014267;28;20049;-79
2022/12/06 07:46:48;;;;;;;29.77;14.57;;;;;;;0.83;100.00;96338.22;5000887;28;20056;-80
2022/12/06 07:49:15;;;;;;;28.77;14.38;;;;;;;0.68;100.00;96342.41;5008784;28;20053;-79
2022/12/06 07:51:42;;;;;;;29.67;14.43;;;;;;;0.81;100.00;96340.34;5003757;28;20498;-80
2022/12/06 07:54:09;;;;;;;29.80;13.70;;;;;;;0.90;100.00;96339.63;5006979;28;20053;-79
2022/12/06 07:56:36;;;;;;;26.42;12.85;;;;;;;1.09;100.00;96342.69;5017689;28;20048;-80
2022/12/06 07:59:06;;;;;;;27.23;13.57;;;;;;;0.86;100.00;96348.44;5007022;28;20072;-79
2022/12/06 08:01:34;;;;;;;32.38;13.95;;;;;;;0.98;100.00;96346.38;5022482;28;20102;-80
2022/12/06 08:04:01;;;;;;;27.35;13.02;;;;;;;1.17;100.00;96346.78;5016757;28;20050;-79
2022/12/06 08:06:30;;;;;;;29.35;13.93;;;;;;;1.12;100.00;96344.88;5031340;28;20060;-79
2022/12/06 08:08:56;;;;;;;27.27;13.60;;;;;;;1.03;100.00;96338.38;5032391;28;20074;-79
2022/12/06 08:11:23;;;;;;;26.02;12.40;;;;;;;1.07;100.00;96336.78;5023748;28;20049;-80
2022/12/06 08:13:50;;;;;;;29.75;13.90;;;;;;;0.96;100.00;96335.09;5020736;28;20449;-80
2022/12/06 08:16:18;;;;;;;33.20;13.93;;;;;;;1.06;100.00;96327.13;5017661;28;20048;-79
2022/12/06 08:18:44;;;;;;;27.88;13.52;;;;;;;1.09;100.00;96331.16;5014992;28;20061;-79
2022/12/06 08:21:12;;;;;;;29.60;14.57;;;;;;;1.17;100.00;96328.81;5023840;28;20050;-77
2022/12/06 08:23:39;;;;;;;27.90;14.50;;;;;;;1.26;100.00;96334.50;5017915;28;20072;-80
2022/12/06 08:26:07;;;;;;;28.70;13.98;;;;;;;1.16;100.00;96335.25;5015507;28;20042;-80
2022/12/06 08:28:36;;;;;;;29.25;14.38;;;;;;;1.19;100.00;96332.03;5014722;28;20085;-79
2022/12/06 08:31:07;;;;;;;30.67;14.25;;;;;;;1.30;100.00;96338.28;5024661;28;20053;-81
2022/12/06 08:33:36;;;;;;;34.75;14.77;;;;;;;1.55;100.00;96330.34;5015838;28;20077;-79
2022/12/06 08:36:07;;;;;;;28.17;14.18;;;;;;;1.67;100.00;96337.38;5027413;28;20046;-79
2022/12/06 08:38:34;;;;;;;31.15;14.98;;;;;;;1.73;100.00;96336.38;5013235;28;20213;-79
2022/12/06 08:41:01;;;;;;;31.50;14.90;;;;;;;1.77;100.00;96332.06;5019823;28;20050;-79
2022/12/06 08:43:27;;;;;;;27.02;13.77;;;;;;;1.96;100.00;96325.16;5021186;28;20061;-77
2022/12/06 08:45:54;;;;;;;23.73;13.35;;;;;;;2.21;100.00;96321.75;5024762;28;20042;-78
2022/12/06 08:48:21;;;;;;;26.70;13.65;;;;;;;1.89;98.30;96329.97;5033584;28;20041;-79
2022/12/06 08:50:49;;;;;;;38.72;15.02;;;;;;;1.77;98.76;96332.88;5017181;28;20039;-78
2022/12/06 08:53:15;;;;;;;32.00;14.75;;;;;;;1.92;99.77;96339.38;5025088;28;20050;-79
2022/12/06 08:55:42;;;;;;;27.98;14.02;;;;;;;2.00;99.25;96336.19;5022617;28;20058;-79
2022/12/06 08:58:09;;;;;;;29.77;14.82;;;;;;;1.98;99.12;96341.00;5022186;28;20113;-78
2022/12/06 09:00:35;;;;;;;32.67;15.63;;;;;;;1.77;100.00;96338.25;5014273;28;20057;-78
2022/12/06 09:03:02;;;;;;;29.73;14.60;;;;;;;1.99;100.00;96345.31;5028390;28;20043;-80
2022/12/06 09:05:28;;;;;;;30.38;15.40;;;;;;;1.91;100.00;96343.94;5021077;28;20045;-79
2022/12/06 09:07:56;;;;;;;31.25;15.15;;;;;;;2.01;100.00;96352.03;5021316;28;20106;-79
2022/12/06 09:10:23;;;;;;;26.98;13.93;;;;;;;2.11;100.00;96348.59;5016897;28;20044;-79
2022/12/06 09:12:49;;;;;;;26.10;14.38;;;;;;;2.10;99.73;96352.34;5027346;28;20121;-78
2022/12/06 09:15:16;;;;;;;31.85;15.73;;;;;;;2.13;98.77;96349.13;5009315;28;20062;-79
2022/12/06 09:17:43;;;;;;;28.92;14.35;;;;;;;2.05;99.19;96355.00;5020740;28;20045;-78
2022/12/06 09:20:16;;;;;;;29.98;15.52;;;;;;;2.01;99.85;96354.72;5016729;28;20109;-78
2022/12/06 09:22:43;;;;;;;;;;;;;;;2.06;98.70;96346.69;5017532;28;20049;-79
2022/12/06 09:25:11;;;;;;;28.83;14.90;;;;;;;2.02;99.02;96345.59;5014180;28;19975;-79
2022/12/06 09:27:38;;;;;;;34.40;16.60;;;;;;;1.93;99.55;96347.19;5009152;28;20048;-80
2022/12/06 09:30:06;;;;;;;32.05;15.05;;;;;;;1.94;100.00;96351.47;5017132;28;20042;-79
2022/12/06 09:32:33;;;;;;;32.88;15.48;;;;;;;1.94;100.00;96348.00;5006828;28;20046;-79
2022/12/06 09:35:00;;;;;;;34.15;15.70;;;;;;;2.05;100.00;96341.59;5022682;28;20061;-79
2022/12/06 09:37:27;;;;;;;29.33;14.88;;;;;;;1.91;100.00;96343.94;5015832;28;20038;-77
2022/12/06 09:40:02;;;;;;;33.00;16.08;;;;;;;1.91;100.00;96345.81;5022949;28;20034;-79
2022/12/06 09:42:57;;;;;;;33.72;16.17;;;;;;;2.05;100.00;96344.28;5022631;28;20048;-80
2022/12/06 09:45:36;;;;;;;28.25;15.05;;;;;;;2.00;99.46;96336.19;5017237;28;20038;-80
2022/12/06 09:48:21;;;;;;;30.88;14.43;;;;;;;2.05;100.00;96341.59;5015449;28;20042;-80
2022/12/06 09:50:58;;;;;;;25.98;14.45;;;;;;;2.24;99.69;96334.63;5014283;28;20054;-80
2022/12/06 09:53:43;;;;;;;32.53;15.07;;;;;;;2.16;99.58;96329.78;5010275;28;20052;-80
2022/12/06 09:56:16;;;;;;;32.83;15.70;;;;;;;2.13;99.82;96318.75;5006041;28;20051;-81
2022/12/06 09:58:58;;;;;;;31.75;15.55;;;;;;;2.38;99.82;96326.06;4999668;28;20055;-80
2022/12/06 10:01:35;;;;;;;30.10;14.52;;;;;;;2.61;99.52;96314.81;5001854;28;20042;-81
2022/12/06 10:04:26;;;;;;;27.58;14.15;;;;;;;2.37;98.10;96313.72;5004117;28;20048;-79
2022/12/06 10:07:05;;;;;;;28.65;13.70;;;;;;;2.48;97.42;96309.97;5010542;28;20081;-79
2022/12/06 10:09:39;;;;;;;29.30;14.10;;;;;;;2.40;98.02;96305.09;5009249;28;20101;-78
2022/12/06 10:12:22;;;;;;;33.83;15.60;;;;;;;2.62;98.56;96297.63;5002817;28;20049;-78
2022/12/06 10:15:04;;;;;;;30.48;15.13;;;;;;;2.52;97.31;96298.41;5025716;28;20113;-79
2022/12/06 10:17:45;;;;;;;34.85;15.70;;;;;;;2.34;97.12;96288.97;5027707;28;20049;-79
2022/12/06 10:20:18;;;;;;;29.50;14.57;;;;;;;2.56;97.30;96287.94;5016551;28;20050;-78
2022/12/06 10:22:57;;;;;;;23.17;10.52;;;;;;;2.43;96.44;96285.78;5021335;28;20050;-79
2022/12/06 10:25:30;;;;;;;29.10;14.68;;;;;;;2.46;97.14;96277.19;5026899;28;20048;-78
2022/12/06 10:28:00;;;;;;;;;;;;;;;2.74;95.77;96281.22;5013415;28;20105;-79
2022/12/06 10:30:29;;;;;;;24.15;12.38;;;;;;;2.89;94.90;96267.75;5016441;28;19921;-81
2022/12/06 10:33:04;;;;;;;28.50;14.50;;;;;;;2.86;95.65;96269.09;5006069;28;20133;-80
2022/12/06 10:35:41;;;;;;;29.85;14.38;;;;;;;2.76;94.35;96279.84;5013765;28;20050;-79
2022/12/06 10:38:20;;;;;;;26.63;13.63;;;;;;;2.97;94.41;96274.44;5016569;28;20061;-79
2022/12/06 10:40:57;;;;;;;28.60;13.57;;;;;;;3.11;93.57;96270.94;5012351;28;20052;-79
2022/12/06 10:43:29;;;;;;;26.17;13.68;;;;;;;2.77;93.89;96269.94;5013158;28;20050;-79
2022/12/06 10:48:58;;;;;;;27.25;14.02;;;;;;;3.05;93.78;96260.47;5008919;28;20074;-79
2022/12/06 10:51:34;;;;;;;28.80;14.00;;;;;;;2.67;95.31;96261.88;5015848;28;20128;-79
2022/12/06 10:54:10;;;;;;;29.05;14.23;;;;;;;2.90;94.37;96258.59;5002964;28;20056;-78
2022/12/06 10:56:40;;;;;;;30.30;14.05;;;;;;;2.70;94.85;96264.81;5010225;28;20112;-79
2022/12/06 10:59:20;;;;;;;28.80;14.25;;;;;;;2.67;94.97;96270.72;5010081;28;20052;-78
2022/12/06 11:01:51;;;;;;;26.45;13.63;;;;;;;2.95;95.04;96265.84;5018014;28;20409;-79
2022/12/06 11:04:25;;;;;;;27.30;13.35;;;;;;;2.84;94.06;96273.13;5003165;28;20038;-78
2022/12/06 11:06:58;;;;;;;26.00;13.35;;;;;;;2.97;94.46;96271.75;5006040;28;20050;-79
2022/12/06 11:09:33;;;;;;;25.58;12.90;;;;;;;3.06;93.93;96283.59;4997848;28;20093;-78
2022/12/06 11:12:02;;;;;;;27.27;14.32;;;;;;;3.02;94.25;96277.94;5004160;28;20057;-79
2022/12/06 11:14:37;;;;;;;27.70;13.85;;;;;;;2.77;95.03;96270.72;4998010;28;20102;-78
2022/12/06 11:17:14;;;;;;;32.65;14.38;;;;;;;2.83;94.75;96263.47;5017136;28;20111;-79
2022/12/06 11:19:45;;;;;;;29.80;14.05;;;;;;;2.98;94.70;96266.13;5001154;28;20050;-78
2022/12/06 11:22:23;;;;;;;27.08;13.65;;;;;;;2.95;94.17;96258.59;5008896;28;20053;-80
2022/12/06 11:24:56;;;;;;;29.35;13.10;;;;;;;2.93;92.94;96260.75;5008529;28;20050;-78
2022/12/06 11:27:30;;;;;;;24.02;12.15;;;;;;;3.11;93.05;96259.38;5009201;28;20046;-81
2022/12/06 11:29:57;;;;;;;27.17;12.82;;;;;;;3.32;92.51;96260.94;5008258;28;20375;-79
2022/12/06 11:32:25;;;;;;;26.98;13.43;;;;;;;3.34;92.65;96264.16;5001185;28;20479;-79
2022/12/06 11:34:55;;;;;;;30.35;13.48;;;;;;;3.28;91.96;96259.84;4999835;28;20477;-79
2022/12/06 11:37:25;;;;;;;27.88;12.57;;;;;;;3.19;91.51;96256.13;5016327;28;20056;-79
2022/12/06 11:39:58;;;;;;;23.40;11.77;;;;;;;3.02;91.92;96255.63;5006622;28;20053;-80
2022/12/06 11:42:27;;;;;;;23.27;11.25;;;;;;;3.01;91.25;96259.38;4999815;28;20054;-80
2022/12/06 11:44:58;;;;;;;28.98;13.07;;;;;;;3.00;92.28;96257.78;5006480;28;20053;-80
2022/12/06 11:47:28;;;;;;;25.15;12.05;;;;;;;3.05;91.99;96252.41;5007178;28;20540;-80
2022/12/06 11:49:56;;;;;;;21.58;11.30;;;;;;;2.98;91.42;96243.81;5003914;28;20125;-78
2022/12/06 11:52:30;;;;;;;22.20;11.32;;;;;;;3.12;91.40;96244.84;4996351;28;20133;-78
2022/12/06 11:55:00;;;;;;;24.63;11.90;;;;;;;2.94;91.87;96242.75;5008101;28;20045;-79
2022/12/06 11:57:31;;;;;;;23.45;11.63;;;;;;;3.01;92.23;96248.63;5007466;28;20658;-79